sensor_id;sensor_type;location;lat;lon;timestamp;P1;durP1;ratioP1;P2;durP2;ratioP2
41255;SDS011;26989;45.524;10.938;2022-12-19T00:00:00;19.30;;;12.20;;
41255;SDS011;26989;45.524;10.938;2022-12-19T00:02:27;19.58;;;12.52;;
41255;SDS011;26989;45.524;10.938;2022-12-19T00:04:54;20.67;;;12.45;;
41255;SDS011;26989;45.524;10.938;2022-12-19T00:07:21;23.55;;;13.55;;
41255;SDS011;26989;45.524;10.938;2022-12-19T00:09:48;23.10;;;13.60;;
41255;SDS011;26989;45.524;10.938;2022-12-19T00:12:15;21.88;;;13.48;;
41255;SDS011;26989;45.524;10.938;2022-12-19T00:14:45;18.98;;;12.13;;
41255;SDS011;26989;45.524;10.938;2022-12-19T00:17:12;19.45;;;11.88;;
41255;SDS011;26989;45.524;10.938;2022-12-19T00:19:39;19.58;;;12.18;;
41255;SDS011;26989;45.524;10.938;2022-12-19T00:22:06;20.30;;;13.32;;
41255;SDS011;26989;45.524;10.938;2022-12-19T00:24:36;22.08;;;12.57;;
41255;SDS011;26989;45.524;10.938;2022-12-19T00:27:03;19.15;;;11.55;;
41255;SDS011;26989;45.524;10.938;2022-12-19T00:29:30;20.77;;;13.13;;
41255;SDS011;26989;45.524;10.938;2022-12-19T00:31:57;20.65;;;11.80;;
41255;SDS011;26989;45.524;10.938;2022-12-19T00:34:24;21.83;;;12.50;;
41255;SDS011;26989;45.524;10.938;2022-12-19T00:36:51;19.67;;;12.80;;
41255;SDS011;26989;45.524;10.938;2022-12-19T00:39:18;20.65;;;13.27;;
41255;SDS011;26989;45.524;10.938;2022-12-19T00:41:45;21.02;;;14.10;;
41255;SDS011;26989;45.524;10.938;2022-12-19T00:44:12;20.23;;;13.23;;
41255;SDS011;26989;45.524;10.938;2022-12-19T00:46:39;19.55;;;12.77;;
41255;SDS011;26989;45.524;10.938;2022-12-19T00:49:08;18.60;;;13.43;;
41255;SDS011;26989;45.524;10.938;2022-12-19T00:51:36;18.75;;;12.77;;
41255;SDS011;26989;45.524;10.938;2022-12-19T00:54:03;17.52;;;11.98;;
41255;SDS011;26989;45.524;10.938;2022-12-19T00:56:32;18.83;;;11.60;;
41255;SDS011;26989;45.524;10.938;2022-12-19T00:59:03;16.35;;;10.48;;
41255;SDS011;26989;45.524;10.938;2022-12-19T01:01:32;16.30;;;10.43;;
41255;SDS011;26989;45.524;10.938;2022-12-19T01:04:02;18.50;;;11.20;;
41255;SDS011;26989;45.524;10.938;2022-12-19T01:06:51;19.77;;;12.23;;
41255;SDS011;26989;45.524;10.938;2022-12-19T01:09:18;17.85;;;12.77;;
41255;SDS011;26989;45.524;10.938;2022-12-19T01:11:47;22.05;;;13.35;;
41255;SDS011;26989;45.524;10.938;2022-12-19T01:14:32;18.88;;;11.52;;
41255;SDS011;26989;45.524;10.938;2022-12-19T01:16:59;20.55;;;13.00;;
41255;SDS011;26989;45.524;10.938;2022-12-19T01:19:26;21.02;;;13.07;;
41255;SDS011;26989;45.524;10.938;2022-12-19T01:21:53;21.70;;;13.85;;
41255;SDS011;26989;45.524;10.938;2022-12-19T01:24:20;19.58;;;12.45;;
41255;SDS011;26989;45.524;10.938;2022-12-19T01:26:47;24.58;;;13.10;;
41255;SDS011;26989;45.524;10.938;2022-12-19T01:29:13;23.33;;;13.80;;
41255;SDS011;26989;45.524;10.938;2022-12-19T01:31:40;20.95;;;12.82;;
41255;SDS011;26989;45.524;10.938;2022-12-19T01:34:07;20.17;;;12.60;;
41255;SDS011;26989;45.524;10.938;2022-12-19T01:36:34;19.45;;;12.27;;
41255;SDS011;26989;45.524;10.938;2022-12-19T01:39:05;20.73;;;12.27;;
41255;SDS011;26989;45.524;10.938;2022-12-19T01:41:33;18.15;;;11.27;;
41255;SDS011;26989;45.524;10.938;2022-12-19T01:44:02;19.23;;;11.90;;
41255;SDS011;26989;45.524;10.938;2022-12-19T01:51:57;17.55;;;11.07;;
41255;SDS011;26989;45.524;10.938;2022-12-19T01:54:34;16.77;;;10.50;;
41255;SDS011;26989;45.524;10.938;2022-12-19T01:57:05;15.93;;;10.13;;
41255;SDS011;26989;45.524;10.938;2022-12-19T01:59:38;18.20;;;11.10;;
41255;SDS011;26989;45.524;10.938;2022-12-19T02:02:22;16.35;;;10.10;;
41255;SDS011;26989;45.524;10.938;2022-12-19T02:05:03;17.05;;;10.40;;
41255;SDS011;26989;45.524;10.938;2022-12-19T02:07:30;20.38;;;11.70;;
41255;SDS011;26989;45.524;10.938;2022-12-19T02:09:59;18.27;;;11.73;;
41255;SDS011;26989;45.524;10.938;2022-12-19T02:12:26;20.75;;;12.15;;
41255;SDS011;26989;45.524;10.938;2022-12-19T02:14:57;22.88;;;13.65;;
41255;SDS011;26989;45.524;10.938;2022-12-19T02:33:54;20.70;;;12.63;;
41255;SDS011;26989;45.524;10.938;2022-12-19T02:39:14;20.50;;;12.23;;
41255;SDS011;26989;45.524;10.938;2022-12-19T02:41:55;20.30;;;12.25;;
41255;SDS011;26989;45.524;10.938;2022-12-19T02:44:30;19.88;;;11.80;;
41255;SDS011;26989;45.524;10.938;2022-12-19T02:47:01;19.92;;;12.63;;
41255;SDS011;26989;45.524;10.938;2022-12-19T02:49:34;21.63;;;13.07;;
41255;SDS011;26989;45.524;10.938;2022-12-19T02:58:20;22.63;;;12.63;;
41255;SDS011;26989;45.524;10.938;2022-12-19T03:04:04;19.75;;;13.32;;
41255;SDS011;26989;45.524;10.938;2022-12-19T03:06:46;20.27;;;13.07;;
41255;SDS011;26989;45.524;10.938;2022-12-19T03:09:40;21.48;;;13.77;;
41255;SDS011;26989;45.524;10.938;2022-12-19T03:12:39;21.42;;;13.35;;
41255;SDS011;26989;45.524;10.938;2022-12-19T03:15:30;21.20;;;13.25;;
41255;SDS011;26989;45.524;10.938;2022-12-19T03:17:58;21.42;;;13.43;;
41255;SDS011;26989;45.524;10.938;2022-12-19T03:23:05;20.42;;;12.95;;
41255;SDS011;26989;45.524;10.938;2022-12-19T03:25:32;23.70;;;14.88;;
41255;SDS011;26989;45.524;10.938;2022-12-19T03:28:00;22.83;;;14.32;;
41255;SDS011;26989;45.524;10.938;2022-12-19T03:30:32;15.32;;;9.55;;
41255;SDS011;26989;45.524;10.938;2022-12-19T03:33:00;20.75;;;13.55;;
41255;SDS011;26989;45.524;10.938;2022-12-19T03:35:28;22.38;;;12.80;;
41255;SDS011;26989;45.524;10.938;2022-12-19T03:37:59;19.40;;;12.50;;
41255;SDS011;26989;45.524;10.938;2022-12-19T03:40:29;18.85;;;13.13;;
41255;SDS011;26989;45.524;10.938;2022-12-19T03:42:59;25.90;;;13.90;;
41255;SDS011;26989;45.524;10.938;2022-12-19T03:53:30;21.63;;;13.48;;
41255;SDS011;26989;45.524;10.938;2022-12-19T03:59:06;21.35;;;13.55;;
41255;SDS011;26989;45.524;10.938;2022-12-19T04:01:43;27.42;;;14.10;;
41255;SDS011;26989;45.524;10.938;2022-12-19T04:04:11;23.48;;;13.55;;
41255;SDS011;26989;45.524;10.938;2022-12-19T04:06:39;27.33;;;15.35;;
41255;SDS011;26989;45.524;10.938;2022-12-19T04:09:08;25.90;;;16.38;;
41255;SDS011;26989;45.524;10.938;2022-12-19T04:11:37;26.40;;;16.85;;
41255;SDS011;26989;45.524;10.938;2022-12-19T04:14:16;31.15;;;18.60;;
41255;SDS011;26989;45.524;10.938;2022-12-19T04:16:54;25.50;;;17.27;;
41255;SDS011;26989;45.524;10.938;2022-12-19T04:19:35;30.38;;;18.08;;
41255;SDS011;26989;45.524;10.938;2022-12-19T04:22:16;28.67;;;17.10;;
41255;SDS011;26989;45.524;10.938;2022-12-19T04:24:50;27.45;;;15.80;;
41255;SDS011;26989;45.524;10.938;2022-12-19T04:27:19;22.65;;;14.77;;
41255;SDS011;26989;45.524;10.938;2022-12-19T04:29:50;24.40;;;14.95;;
41255;SDS011;26989;45.524;10.938;2022-12-19T04:32:19;26.77;;;16.90;;
41255;SDS011;26989;45.524;10.938;2022-12-19T04:34:47;26.98;;;14.80;;
41255;SDS011;26989;45.524;10.938;2022-12-19T04:37:13;25.05;;;15.50;;
41255;SDS011;26989;45.524;10.938;2022-12-19T04:39:40;26.40;;;15.65;;
41255;SDS011;26989;45.524;10.938;2022-12-19T04:42:07;22.50;;;14.25;;
41255;SDS011;26989;45.524;10.938;2022-12-19T04:44:34;23.38;;;14.20;;
41255;SDS011;26989;45.524;10.938;2022-12-19T04:47:01;25.20;;;15.73;;
41255;SDS011;26989;45.524;10.938;2022-12-19T04:49:28;25.55;;;14.48;;
41255;SDS011;26989;45.524;10.938;2022-12-19T04:51:55;24.63;;;15.77;;
41255;SDS011;26989;45.524;10.938;2022-12-19T04:54:22;26.13;;;15.38;;
41255;SDS011;26989;45.524;10.938;2022-12-19T04:56:49;26.15;;;16.27;;
41255;SDS011;26989;45.524;10.938;2022-12-19T04:59:17;27.35;;;16.45;;
41255;SDS011;26989;45.524;10.938;2022-12-19T05:01:44;27.98;;;15.77;;
41255;SDS011;26989;45.524;10.938;2022-12-19T05:04:11;23.77;;;14.95;;
41255;SDS011;26989;45.524;10.938;2022-12-19T05:06:38;23.50;;;15.45;;
41255;SDS011;26989;45.524;10.938;2022-12-19T05:09:05;29.27;;;16.15;;
41255;SDS011;26989;45.524;10.938;2022-12-19T05:11:32;27.00;;;15.52;;
41255;SDS011;26989;45.524;10.938;2022-12-19T05:13:59;23.50;;;15.23;;
41255;SDS011;26989;45.524;10.938;2022-12-19T05:16:26;24.35;;;15.43;;
41255;SDS011;26989;45.524;10.938;2022-12-19T05:18:53;23.90;;;14.98;;
41255;SDS011;26989;45.524;10.938;2022-12-19T05:21:21;24.92;;;15.40;;
41255;SDS011;26989;45.524;10.938;2022-12-19T05:23:48;29.67;;;17.60;;
41255;SDS011;26989;45.524;10.938;2022-12-19T05:26:16;26.48;;;16.27;;
41255;SDS011;26989;45.524;10.938;2022-12-19T05:28:44;25.83;;;14.95;;
41255;SDS011;26989;45.524;10.938;2022-12-19T05:31:12;26.73;;;14.57;;
41255;SDS011;26989;45.524;10.938;2022-12-19T05:33:41;25.58;;;15.52;;
41255;SDS011;26989;45.524;10.938;2022-12-19T05:36:09;27.17;;;17.13;;
41255;SDS011;26989;45.524;10.938;2022-12-19T05:38:37;28.80;;;16.15;;
41255;SDS011;26989;45.524;10.938;2022-12-19T05:41:07;29.80;;;16.58;;
41255;SDS011;26989;45.524;10.938;2022-12-19T05:43:41;30.92;;;18.92;;
41255;SDS011;26989;45.524;10.938;2022-12-19T05:46:08;32.58;;;19.80;;
41255;SDS011;26989;45.524;10.938;2022-12-19T05:48:50;29.17;;;18.42;;
41255;SDS011;26989;45.524;10.938;2022-12-19T05:51:17;29.20;;;18.25;;
41255;SDS011;26989;45.524;10.938;2022-12-19T05:53:44;27.42;;;17.58;;
41255;SDS011;26989;45.524;10.938;2022-12-19T05:56:31;28.38;;;16.95;;
41255;SDS011;26989;45.524;10.938;2022-12-19T05:58:58;28.48;;;17.52;;
41255;SDS011;26989;45.524;10.938;2022-12-19T06:01:26;26.40;;;17.50;;
41255;SDS011;26989;45.524;10.938;2022-12-19T06:03:53;26.77;;;17.10;;
41255;SDS011;26989;45.524;10.938;2022-12-19T06:06:21;28.05;;;18.42;;
41255;SDS011;26989;45.524;10.938;2022-12-19T06:08:53;27.05;;;18.23;;
41255;SDS011;26989;45.524;10.938;2022-12-19T06:11:21;28.10;;;19.10;;
41255;SDS011;26989;45.524;10.938;2022-12-19T06:13:48;28.23;;;18.08;;
41255;SDS011;26989;45.524;10.938;2022-12-19T06:16:16;29.48;;;18.30;;
41255;SDS011;26989;45.524;10.938;2022-12-19T06:18:45;29.25;;;18.23;;
41255;SDS011;26989;45.524;10.938;2022-12-19T06:21:13;33.13;;;20.40;;
41255;SDS011;26989;45.524;10.938;2022-12-19T06:23:46;26.77;;;18.50;;
41255;SDS011;26989;45.524;10.938;2022-12-19T06:26:15;28.55;;;19.10;;
41255;SDS011;26989;45.524;10.938;2022-12-19T06:28:45;36.88;;;25.50;;
41255;SDS011;26989;45.524;10.938;2022-12-19T06:31:14;45.67;;;23.90;;
41255;SDS011;26989;45.524;10.938;2022-12-19T06:33:41;35.05;;;20.35;;
41255;SDS011;26989;45.524;10.938;2022-12-19T06:36:13;48.72;;;19.75;;
41255;SDS011;26989;45.524;10.938;2022-12-19T06:38:48;28.30;;;17.60;;
41255;SDS011;26989;45.524;10.938;2022-12-19T06:41:18;24.73;;;16.50;;
41255;SDS011;26989;45.524;10.938;2022-12-19T06:44:05;28.17;;;19.15;;
41255;SDS011;26989;45.524;10.938;2022-12-19T06:46:34;99.00;;;22.08;;
41255;SDS011;26989;45.524;10.938;2022-12-19T06:49:02;113.38;;;22.27;;
41255;SDS011;26989;45.524;10.938;2022-12-19T06:51:30;101.55;;;21.73;;
41255;SDS011;26989;45.524;10.938;2022-12-19T06:53:57;150.80;;;23.25;;
41255;SDS011;26989;45.524;10.938;2022-12-19T06:56:25;100.25;;;24.10;;
41255;SDS011;26989;45.524;10.938;2022-12-19T06:58:52;109.95;;;20.35;;
41255;SDS011;26989;45.524;10.938;2022-12-19T07:01:28;84.70;;;20.07;;
41255;SDS011;26989;45.524;10.938;2022-12-19T07:04:06;33.78;;;20.10;;
41255;SDS011;26989;45.524;10.938;2022-12-19T07:06:34;37.47;;;22.80;;
41255;SDS011;26989;45.524;10.938;2022-12-19T07:09:02;57.10;;;24.42;;
41255;SDS011;26989;45.524;10.938;2022-12-19T07:11:32;49.15;;;25.45;;
41255;SDS011;26989;45.524;10.938;2022-12-19T07:13:59;41.55;;;23.92;;
41255;SDS011;26989;45.524;10.938;2022-12-19T07:16:26;36.05;;;22.80;;
41255;SDS011;26989;45.524;10.938;2022-12-19T07:18:56;41.60;;;23.92;;
41255;SDS011;26989;45.524;10.938;2022-12-19T07:21:24;42.55;;;24.20;;
41255;SDS011;26989;45.524;10.938;2022-12-19T07:23:51;47.15;;;23.45;;
41255;SDS011;26989;45.524;10.938;2022-12-19T07:26:18;38.15;;;23.88;;
41255;SDS011;26989;45.524;10.938;2022-12-19T07:28:45;40.47;;;23.80;;
41255;SDS011;26989;45.524;10.938;2022-12-19T07:31:12;38.53;;;23.05;;
41255;SDS011;26989;45.524;10.938;2022-12-19T07:33:39;36.25;;;23.25;;
41255;SDS011;26989;45.524;10.938;2022-12-19T07:36:08;39.20;;;24.27;;
41255;SDS011;26989;45.524;10.938;2022-12-19T07:38:38;37.55;;;22.67;;
41255;SDS011;26989;45.524;10.938;2022-12-19T07:41:38;37.38;;;24.13;;
41255;SDS011;26989;45.524;10.938;2022-12-19T07:44:43;39.53;;;25.65;;
41255;SDS011;26989;45.524;10.938;2022-12-19T07:47:11;37.28;;;24.35;;
41255;SDS011;26989;45.524;10.938;2022-12-19T07:49:42;42.20;;;25.30;;
41255;SDS011;26989;45.524;10.938;2022-12-19T07:52:09;46.03;;;27.27;;
41255;SDS011;26989;45.524;10.938;2022-12-19T07:54:37;47.13;;;27.20;;
41255;SDS011;26989;45.524;10.938;2022-12-19T07:57:27;42.78;;;25.90;;
41255;SDS011;26989;45.524;10.938;2022-12-19T07:59:54;41.55;;;24.13;;
41255;SDS011;26989;45.524;10.938;2022-12-19T08:02:21;40.97;;;23.55;;
41255;SDS011;26989;45.524;10.938;2022-12-19T08:04:48;45.58;;;26.27;;
41255;SDS011;26989;45.524;10.938;2022-12-19T08:07:16;51.78;;;29.40;;
41255;SDS011;26989;45.524;10.938;2022-12-19T08:09:43;47.30;;;29.35;;
41255;SDS011;26989;45.524;10.938;2022-12-19T08:12:12;43.60;;;27.98;;
41255;SDS011;26989;45.524;10.938;2022-12-19T08:14:39;43.22;;;26.75;;
41255;SDS011;26989;45.524;10.938;2022-12-19T08:17:13;43.47;;;26.33;;
41255;SDS011;26989;45.524;10.938;2022-12-19T08:19:46;43.83;;;26.02;;
41255;SDS011;26989;45.524;10.938;2022-12-19T08:22:18;46.17;;;25.00;;
41255;SDS011;26989;45.524;10.938;2022-12-19T08:24:45;40.78;;;26.15;;
41255;SDS011;26989;45.524;10.938;2022-12-19T08:27:22;47.00;;;24.95;;
41255;SDS011;26989;45.524;10.938;2022-12-19T08:30:06;40.63;;;25.98;;
41255;SDS011;26989;45.524;10.938;2022-12-19T08:32:34;45.80;;;28.50;;
41255;SDS011;26989;45.524;10.938;2022-12-19T08:35:07;50.92;;;27.55;;
41255;SDS011;26989;45.524;10.938;2022-12-19T08:37:39;47.33;;;28.52;;
41255;SDS011;26989;45.524;10.938;2022-12-19T08:40:07;31.08;;;20.40;;
41255;SDS011;26989;45.524;10.938;2022-12-19T08:42:48;30.17;;;17.25;;
41255;SDS011;26989;45.524;10.938;2022-12-19T08:45:25;28.55;;;18.70;;
41255;SDS011;26989;45.524;10.938;2022-12-19T08:48:01;26.60;;;16.98;;
41255;SDS011;26989;45.524;10.938;2022-12-19T08:50:53;34.45;;;18.15;;
41255;SDS011;26989;45.524;10.938;2022-12-19T08:53:25;25.50;;;17.70;;
41255;SDS011;26989;45.524;10.938;2022-12-19T08:55:54;26.55;;;18.30;;
41255;SDS011;26989;45.524;10.938;2022-12-19T08:58:26;24.52;;;17.83;;
41255;SDS011;26989;45.524;10.938;2022-12-19T09:01:00;27.58;;;19.27;;
41255;SDS011;26989;45.524;10.938;2022-12-19T09:03:32;27.48;;;19.75;;
41255;SDS011;26989;45.524;10.938;2022-12-19T09:06:20;42.15;;;26.42;;
41255;SDS011;26989;45.524;10.938;2022-12-19T09:08:50;30.15;;;20.40;;
41255;SDS011;26989;45.524;10.938;2022-12-19T09:11:25;27.35;;;18.67;;
41255;SDS011;26989;45.524;10.938;2022-12-19T09:14:00;26.00;;;18.55;;
41255;SDS011;26989;45.524;10.938;2022-12-19T09:16:28;27.40;;;19.88;;
41255;SDS011;26989;45.524;10.938;2022-12-19T09:18:57;43.13;;;27.90;;
41255;SDS011;26989;45.524;10.938;2022-12-19T09:21:28;31.05;;;20.90;;
41255;SDS011;26989;45.524;10.938;2022-12-19T09:23:56;30.90;;;20.45;;
41255;SDS011;26989;45.524;10.938;2022-12-19T09:26:32;30.02;;;19.80;;
41255;SDS011;26989;45.524;10.938;2022-12-19T09:29:02;41.28;;;20.75;;
41255;SDS011;26989;45.524;10.938;2022-12-19T09:31:46;29.83;;;19.85;;
41255;SDS011;26989;45.524;10.938;2022-12-19T09:34:21;29.52;;;19.42;;
41255;SDS011;26989;45.524;10.938;2022-12-19T09:36:50;31.45;;;20.60;;
41255;SDS011;26989;45.524;10.938;2022-12-19T09:39:19;28.40;;;18.73;;
41255;SDS011;26989;45.524;10.938;2022-12-19T09:41:53;29.73;;;19.35;;
41255;SDS011;26989;45.524;10.938;2022-12-19T09:44:42;32.22;;;20.13;;
41255;SDS011;26989;45.524;10.938;2022-12-19T09:47:48;31.80;;;18.98;;
41255;SDS011;26989;45.524;10.938;2022-12-19T09:53:28;29.08;;;19.50;;
41255;SDS011;26989;45.524;10.938;2022-12-19T09:56:05;30.58;;;20.17;;
41255;SDS011;26989;45.524;10.938;2022-12-19T09:59:25;35.83;;;20.25;;
41255;SDS011;26989;45.524;10.938;2022-12-19T10:05:24;29.45;;;20.70;;
41255;SDS011;26989;45.524;10.938;2022-12-19T10:08:34;29.52;;;19.65;;
41255;SDS011;26989;45.524;10.938;2022-12-19T10:11:28;29.83;;;20.15;;
41255;SDS011;26989;45.524;10.938;2022-12-19T10:14:49;34.17;;;19.63;;
41255;SDS011;26989;45.524;10.938;2022-12-19T10:20:38;43.15;;;22.77;;
41255;SDS011;26989;45.524;10.938;2022-12-19T10:26:19;32.38;;;20.88;;
41255;SDS011;26989;45.524;10.938;2022-12-19T10:28:59;35.05;;;22.45;;
41255;SDS011;26989;45.524;10.938;2022-12-19T10:31:44;36.80;;;22.42;;
41255;SDS011;26989;45.524;10.938;2022-12-19T10:34:21;33.55;;;21.88;;
41255;SDS011;26989;45.524;10.938;2022-12-19T10:36:54;41.15;;;21.48;;
41255;SDS011;26989;45.524;10.938;2022-12-19T10:42:31;33.38;;;21.50;;
41255;SDS011;26989;45.524;10.938;2022-12-19T10:45:14;31.05;;;20.42;;
41255;SDS011;26989;45.524;10.938;2022-12-19T10:48:02;36.13;;;21.63;;
41255;SDS011;26989;45.524;10.938;2022-12-19T10:50:29;34.03;;;21.63;;
41255;SDS011;26989;45.524;10.938;2022-12-19T10:55:46;32.58;;;21.27;;
41255;SDS011;26989;45.524;10.938;2022-12-19T10:58:35;35.92;;;21.13;;
41255;SDS011;26989;45.524;10.938;2022-12-19T11:01:05;34.45;;;22.52;;
41255;SDS011;26989;45.524;10.938;2022-12-19T11:03:52;34.83;;;22.63;;
41255;SDS011;26989;45.524;10.938;2022-12-19T11:15:14;35.22;;;22.50;;
41255;SDS011;26989;45.524;10.938;2022-12-19T11:18:05;40.08;;;23.15;;
41255;SDS011;26989;45.524;10.938;2022-12-19T11:20:58;40.42;;;24.42;;
41255;SDS011;26989;45.524;10.938;2022-12-19T11:26:49;45.15;;;26.55;;
41255;SDS011;26989;45.524;10.938;2022-12-19T11:29:45;41.75;;;26.42;;
41255;SDS011;26989;45.524;10.938;2022-12-19T11:32:38;47.15;;;26.60;;
41255;SDS011;26989;45.524;10.938;2022-12-19T11:37:55;45.55;;;26.48;;
41255;SDS011;26989;45.524;10.938;2022-12-19T11:55:42;51.08;;;29.23;;
41255;SDS011;26989;45.524;10.938;2022-12-19T11:58:11;50.47;;;29.15;;
41255;SDS011;26989;45.524;10.938;2022-12-19T12:01:02;60.92;;;39.13;;
41255;SDS011;26989;45.524;10.938;2022-12-19T12:06:49;55.70;;;37.17;;
41255;SDS011;26989;45.524;10.938;2022-12-19T12:12:25;59.47;;;33.60;;
41255;SDS011;26989;45.524;10.938;2022-12-19T12:24:16;50.80;;;29.17;;
41255;SDS011;26989;45.524;10.938;2022-12-19T12:27:23;44.20;;;27.42;;
41255;SDS011;26989;45.524;10.938;2022-12-19T12:30:23;49.15;;;28.73;;
41255;SDS011;26989;45.524;10.938;2022-12-19T12:37:15;53.63;;;30.83;;
41255;SDS011;26989;45.524;10.938;2022-12-19T12:46:16;47.30;;;29.15;;
41255;SDS011;26989;45.524;10.938;2022-12-19T12:48:50;52.90;;;30.88;;
41255;SDS011;26989;45.524;10.938;2022-12-19T12:51:20;57.55;;;31.77;;
41255;SDS011;26989;45.524;10.938;2022-12-19T12:53:52;57.17;;;31.25;;
41255;SDS011;26989;45.524;10.938;2022-12-19T12:56:24;51.42;;;29.80;;
41255;SDS011;26989;45.524;10.938;2022-12-19T13:03:57;66.05;;;34.00;;
41255;SDS011;26989;45.524;10.938;2022-12-19T13:06:36;65.03;;;34.80;;
41255;SDS011;26989;45.524;10.938;2022-12-19T13:11:49;63.78;;;35.40;;
41255;SDS011;26989;45.524;10.938;2022-12-19T13:14:48;67.00;;;35.15;;
41255;SDS011;26989;45.524;10.938;2022-12-19T13:20:42;66.97;;;36.20;;
41255;SDS011;26989;45.524;10.938;2022-12-19T13:26:22;56.45;;;32.17;;
41255;SDS011;26989;45.524;10.938;2022-12-19T13:29:23;74.90;;;37.22;;
41255;SDS011;26989;45.524;10.938;2022-12-19T13:32:11;60.47;;;33.75;;
41255;SDS011;26989;45.524;10.938;2022-12-19T13:34:58;61.90;;;34.35;;
41255;SDS011;26989;45.524;10.938;2022-12-19T13:37:48;62.55;;;32.22;;
41255;SDS011;26989;45.524;10.938;2022-12-19T13:41:46;73.97;;;37.25;;
41255;SDS011;26989;45.524;10.938;2022-12-19T13:44:23;73.13;;;38.17;;
41255;SDS011;26989;45.524;10.938;2022-12-19T13:46:51;63.30;;;35.38;;
41255;SDS011;26989;45.524;10.938;2022-12-19T13:49:37;57.65;;;32.78;;
41255;SDS011;26989;45.524;10.938;2022-12-19T13:52:12;58.60;;;32.60;;
41255;SDS011;26989;45.524;10.938;2022-12-19T13:54:50;64.85;;;33.70;;
41255;SDS011;26989;45.524;10.938;2022-12-19T13:57:26;56.92;;;31.20;;
41255;SDS011;26989;45.524;10.938;2022-12-19T13:59:59;56.35;;;33.10;;
41255;SDS011;26989;45.524;10.938;2022-12-19T14:02:40;139.07;;;69.85;;
41255;SDS011;26989;45.524;10.938;2022-12-19T14:05:52;131.65;;;64.32;;
41255;SDS011;26989;45.524;10.938;2022-12-19T14:08:45;342.75;;;177.82;;
41255;SDS011;26989;45.524;10.938;2022-12-19T14:11:41;96.38;;;49.90;;
41255;SDS011;26989;45.524;10.938;2022-12-19T14:14:30;74.00;;;41.10;;
41255;SDS011;26989;45.524;10.938;2022-12-19T14:17:37;68.50;;;36.88;;
41255;SDS011;26989;45.524;10.938;2022-12-19T14:20:15;69.13;;;34.85;;
41255;SDS011;26989;45.524;10.938;2022-12-19T14:23:06;62.17;;;34.05;;
41255;SDS011;26989;45.524;10.938;2022-12-19T14:28:49;65.00;;;35.28;;
41255;SDS011;26989;45.524;10.938;2022-12-19T14:31:21;68.03;;;37.45;;
41255;SDS011;26989;45.524;10.938;2022-12-19T14:33:50;72.30;;;37.58;;
41255;SDS011;26989;45.524;10.938;2022-12-19T14:36:50;64.80;;;34.70;;
41255;SDS011;26989;45.524;10.938;2022-12-19T14:40:20;64.05;;;35.50;;
41255;SDS011;26989;45.524;10.938;2022-12-19T14:43:02;64.65;;;33.85;;
41255;SDS011;26989;45.524;10.938;2022-12-19T14:46:28;63.92;;;34.63;;
41255;SDS011;26989;45.524;10.938;2022-12-19T14:49:23;73.63;;;37.13;;
41255;SDS011;26989;45.524;10.938;2022-12-19T14:55:29;59.60;;;33.13;;
41255;SDS011;26989;45.524;10.938;2022-12-19T14:58:22;67.35;;;33.70;;
41255;SDS011;26989;45.524;10.938;2022-12-19T15:03:57;70.90;;;33.85;;
41255;SDS011;26989;45.524;10.938;2022-12-19T15:06:50;67.47;;;34.90;;
41255;SDS011;26989;45.524;10.938;2022-12-19T15:09:57;65.50;;;35.40;;
41255;SDS011;26989;45.524;10.938;2022-12-19T15:12:53;67.38;;;37.47;;
41255;SDS011;26989;45.524;10.938;2022-12-19T15:16:20;67.70;;;35.03;;
41255;SDS011;26989;45.524;10.938;2022-12-19T15:18:58;64.50;;;35.80;;
41255;SDS011;26989;45.524;10.938;2022-12-19T15:21:27;70.82;;;37.65;;
41255;SDS011;26989;45.524;10.938;2022-12-19T15:23:58;87.53;;;43.97;;
41255;SDS011;26989;45.524;10.938;2022-12-19T15:26:26;104.05;;;54.47;;
41255;SDS011;26989;45.524;10.938;2022-12-19T15:28:56;73.68;;;39.22;;
41255;SDS011;26989;45.524;10.938;2022-12-19T15:31:34;80.00;;;40.53;;
41255;SDS011;26989;45.524;10.938;2022-12-19T15:37:16;94.50;;;49.08;;
41255;SDS011;26989;45.524;10.938;2022-12-19T15:39:58;77.00;;;40.95;;
41255;SDS011;26989;45.524;10.938;2022-12-19T15:42:29;80.78;;;45.97;;
41255;SDS011;26989;45.524;10.938;2022-12-19T15:44:58;71.72;;;42.28;;
41255;SDS011;26989;45.524;10.938;2022-12-19T15:47:34;70.50;;;38.13;;
41255;SDS011;26989;45.524;10.938;2022-12-19T15:52:45;70.85;;;36.33;;
41255;SDS011;26989;45.524;10.938;2022-12-19T15:55:16;78.53;;;39.60;;
41255;SDS011;26989;45.524;10.938;2022-12-19T15:58:00;73.80;;;35.28;;
41255;SDS011;26989;45.524;10.938;2022-12-19T16:00:31;73.60;;;37.10;;
41255;SDS011;26989;45.524;10.938;2022-12-19T16:03:15;77.78;;;40.28;;
41255;SDS011;26989;45.524;10.938;2022-12-19T16:05:51;73.28;;;36.38;;
41255;SDS011;26989;45.524;10.938;2022-12-19T16:08:22;73.82;;;38.67;;
41255;SDS011;26989;45.524;10.938;2022-12-19T16:10:55;72.40;;;39.22;;
41255;SDS011;26989;45.524;10.938;2022-12-19T16:13:28;77.70;;;38.67;;
41255;SDS011;26989;45.524;10.938;2022-12-19T16:16:01;73.47;;;39.70;;
41255;SDS011;26989;45.524;10.938;2022-12-19T16:18:41;87.00;;;41.60;;
41255;SDS011;26989;45.524;10.938;2022-12-19T16:21:19;88.30;;;43.38;;
41255;SDS011;26989;45.524;10.938;2022-12-19T16:23:58;83.22;;;42.35;;
41255;SDS011;26989;45.524;10.938;2022-12-19T16:26:48;85.05;;;42.58;;
41255;SDS011;26989;45.524;10.938;2022-12-19T16:29:21;89.10;;;45.40;;
41255;SDS011;26989;45.524;10.938;2022-12-19T16:32:31;97.22;;;48.42;;
41255;SDS011;26989;45.524;10.938;2022-12-19T16:35:13;87.38;;;46.53;;
41255;SDS011;26989;45.524;10.938;2022-12-19T16:38:14;87.50;;;43.10;;
41255;SDS011;26989;45.524;10.938;2022-12-19T16:40:56;85.35;;;43.88;;
41255;SDS011;26989;45.524;10.938;2022-12-19T16:43:47;78.10;;;41.70;;
41255;SDS011;26989;45.524;10.938;2022-12-19T16:46:22;81.97;;;40.67;;
41255;SDS011;26989;45.524;10.938;2022-12-19T16:48:51;85.07;;;43.40;;
41255;SDS011;26989;45.524;10.938;2022-12-19T16:54:09;83.50;;;44.20;;
41255;SDS011;26989;45.524;10.938;2022-12-19T16:56:45;75.45;;;39.63;;
41255;SDS011;26989;45.524;10.938;2022-12-19T17:04:35;86.63;;;44.80;;
41255;SDS011;26989;45.524;10.938;2022-12-19T17:07:08;85.65;;;45.30;;
41255;SDS011;26989;45.524;10.938;2022-12-19T17:09:36;89.32;;;44.80;;
41255;SDS011;26989;45.524;10.938;2022-12-19T17:12:03;88.40;;;44.25;;
41255;SDS011;26989;45.524;10.938;2022-12-19T17:14:31;88.03;;;47.65;;
41255;SDS011;26989;45.524;10.938;2022-12-19T17:16:58;95.47;;;49.30;;
41255;SDS011;26989;45.524;10.938;2022-12-19T17:19:37;96.15;;;49.05;;
41255;SDS011;26989;45.524;10.938;2022-12-19T17:22:16;78.72;;;42.45;;
41255;SDS011;26989;45.524;10.938;2022-12-19T17:24:44;72.63;;;38.13;;
41255;SDS011;26989;45.524;10.938;2022-12-19T17:27:13;73.05;;;36.25;;
41255;SDS011;26989;45.524;10.938;2022-12-19T17:29:42;76.63;;;39.22;;
41255;SDS011;26989;45.524;10.938;2022-12-19T17:32:24;71.15;;;39.25;;
41255;SDS011;26989;45.524;10.938;2022-12-19T17:35:02;85.13;;;44.05;;